CDT,Max TemperatureF,Mean TemperatureF,Min TemperatureF,Max Dew PointF,MeanDew PointF,Min DewpointF,Max Humidity, Mean Humidity, Min Humidity, Max Sea Level PressureIn, Mean Sea Level PressureIn, Min Sea Level PressureIn, Max VisibilityMiles, Mean VisibilityMiles, Min VisibilityMiles, Max Wind SpeedMPH, Mean Wind SpeedMPH, Max Gust SpeedMPH,PrecipitationIn, CloudCover, Events, WindDirDegrees
2012-10-1,73,60,47,51,45,38,98,61,32,30.00,29.94,29.89,10,10,10,16,4,28,0.00,0,,330
2012-10-2,72,57,42,41,37,30,79,53,21,30.00,29.94,29.86,10,10,10,7,4,,0.00,0,,297
2012-10-3,80,60,39,42,38,34,97,55,19,29.92,29.86,29.77,10,10,10,20,4,26,0.00,0,,154
2012-10-4,60,54,45,46,36,31,83,57,40,30.31,30.19,29.93,10,10,7,20,12,31,0.03,3,Rain-Thunderstorm,323
2012-10-5,51,43,35,32,29,22,83,61,33,30.35,30.30,30.25,10,10,10,15,5,17,0.00,1,,313
2012-10-6,46,38,30,27,24,21,76,54,43,30.38,30.33,30.30,10,10,10,17,6,23,0.00,3,,321
2012-10-7,56,40,25,30,27,25,96,62,31,30.30,30.18,30.03,10,10,10,14,2,21,0.00,0,,227
2012-10-8,70,55,40,35,33,31,74,49,25,30.02,29.89,29.78,10,10,5,15,6,24,0.00,0,,185
2012-10-9,54,46,36,44,32,23,83,55,32,30.15,29.95,29.80,10,10,10,16,5,25,0.00,1,,325
2012-10-10,63,46,29,31,29,25,96,58,29,30.24,30.14,30.04,10,10,10,13,2,20,0.00,0,,190
2012-10-11,64,51,39,37,33,27,78,49,34,30.36,30.12,30.01,10,10,10,13,5,20,0.00,1,,36
2012-10-12,55,46,38,42,27,19,65,45,32,30.37,30.27,30.05,10,10,10,17,7,25,0.03,5,,107
2012-10-13,72,62,52,66,59,48,100,88,69,29.97,29.74,29.57,10,8,1,15,6,21,0.65,7,Rain-Thunderstorm,157
2012-10-14,66,56,45,64,45,36,98,68,34,29.99,29.84,29.59,10,9,4,22,8,31,0.26,2,Rain-Thunderstorm,321
2012-10-15,73,56,39,48,43,40,100,68,35,29.99,29.90,29.76,10,9,4,12,3,,0.00,0,,140
2012-10-16,78,64,49,50,47,43,94,62,28,29.74,29.54,29.40,10,10,10,13,5,18,0.00,0,,265
2012-10-17,66,60,53,52,38,22,90,48,25,29.59,29.48,29.33,10,10,5,30,10,40,0.02,4,Rain,290
2012-10-18,52,48,44,43,33,23,90,58,32,29.62,29.55,29.50,10,9,4,34,20,58,0.14,6,Rain,294
2012-10-19,47,44,39,42,40,39,95,82,75,29.83,29.75,29.61,10,10,5,23,16,33,0.07,8,Rain,319
2012-10-20,65,50,34,45,40,34,100,75,41,29.83,29.77,29.68,10,8,1,14,3,21,0.00,0,,130
2012-10-21,79,62,45,64,53,42,92,75,52,29.78,29.74,29.70,10,10,3,14,5,21,0.00,2,Thunderstorm,134
2012-10-22,68,62,55,65,58,54,96,87,76,29.81,29.77,29.74,10,8,2,7,3,,0.00,7,Rain-Thunderstorm,331
2012-10-23,76,64,53,64,58,53,100,89,62,29.80,29.73,29.64,10,6,1,9,4,,0.00,5,,225
2012-10-24,58,52,46,58,54,45,100,98,94,29.78,29.75,29.72,10,5,0,14,4,21,0.03,7,Fog-Rain-Thunderstorm,334
2012-10-25,45,40,35,45,34,26,96,81,65,30.35,30.04,29.69,10,8,2,31,13,41,0.41,8,Rain-Thunderstorm,327
2012-10-26,42,36,30,27,26,24,83,65,53,30.51,30.44,30.33,10,10,10,14,6,20,0.00,6,,322
2012-10-27,44,34,25,30,26,23,97,69,50,30.42,30.34,30.26,10,10,10,7,2,,0.00,1,,138
2012-10-28,50,42,33,32,30,28,82,63,46,30.33,30.26,30.20,10,10,10,14,5,20,0.00,4,,138
2012-10-29,57,50,42,33,31,29,65,53,38,30.24,30.17,30.08,10,10,10,17,11,25,0.00,3,,138
2012-10-30,53,44,37,33,30,27,83,61,38,30.11,30.07,30.03,10,10,10,9,5,,0.00,3,,109
2012-10-31,59,44,30,38,33,29,94,70,37,30.08,30.03,29.98,10,10,10,5,0,,0.00,0,,214